sensor_id;sensor_type;location;lat;lon;timestamp;temperature;humidity
21169;DHT22;10742;51.816;8.662;2022-07-11T00:03:00;19.90;93.20
21169;DHT22;10742;51.816;8.662;2022-07-11T00:06:21;19.90;93.30
21169;DHT22;10742;51.816;8.662;2022-07-11T00:09:42;19.90;93.40
21169;DHT22;10742;51.816;8.662;2022-07-11T00:13:04;19.80;93.50
21169;DHT22;10742;51.816;8.662;2022-07-11T00:16:28;19.80;93.50
21169;DHT22;10742;51.816;8.662;2022-07-11T00:19:49;19.80;93.70
21169;DHT22;10742;51.816;8.662;2022-07-11T00:23:10;19.80;93.50
21169;DHT22;10742;51.816;8.662;2022-07-11T00:26:32;19.80;93.60
21169;DHT22;10742;51.816;8.662;2022-07-11T00:29:53;19.80;93.60
21169;DHT22;10742;51.816;8.662;2022-07-11T00:33:14;19.80;93.60
21169;DHT22;10742;51.816;8.662;2022-07-11T00:36:36;19.80;93.60
21169;DHT22;10742;51.816;8.662;2022-07-11T00:39:57;19.80;93.70
21169;DHT22;10742;51.816;8.662;2022-07-11T00:43:36;19.80;93.70
21169;DHT22;10742;51.816;8.662;2022-07-11T00:46:57;19.80;94.00
21169;DHT22;10742;51.816;8.662;2022-07-11T00:50:19;19.80;93.60
21169;DHT22;10742;51.816;8.662;2022-07-11T00:53:41;19.90;93.70
21169;DHT22;10742;51.816;8.662;2022-07-11T00:57:03;19.90;93.80
21169;DHT22;10742;51.816;8.662;2022-07-11T01:00:24;19.90;93.70
21169;DHT22;10742;51.816;8.662;2022-07-11T01:03:46;19.90;93.70
21169;DHT22;10742;51.816;8.662;2022-07-11T01:07:07;19.90;93.70
21169;DHT22;10742;51.816;8.662;2022-07-11T01:10:29;20.00;93.80
21169;DHT22;10742;51.816;8.662;2022-07-11T01:13:50;19.90;93.70
21169;DHT22;10742;51.816;8.662;2022-07-11T01:17:12;20.00;93.80
21169;DHT22;10742;51.816;8.662;2022-07-11T01:20:32;20.00;93.70
21169;DHT22;10742;51.816;8.662;2022-07-11T01:23:56;20.00;93.70
21169;DHT22;10742;51.816;8.662;2022-07-11T01:27:18;20.00;93.70
21169;DHT22;10742;51.816;8.662;2022-07-11T01:30:40;20.00;93.60
21169;DHT22;10742;51.816;8.662;2022-07-11T01:34:01;20.00;93.60
21169;DHT22;10742;51.816;8.662;2022-07-11T01:37:23;19.90;93.60
21169;DHT22;10742;51.816;8.662;2022-07-11T01:40:44;19.90;93.60
21169;DHT22;10742;51.816;8.662;2022-07-11T01:44:05;19.90;93.60
21169;DHT22;10742;51.816;8.662;2022-07-11T01:47:26;19.90;93.70
21169;DHT22;10742;51.816;8.662;2022-07-11T01:50:48;19.90;93.80
21169;DHT22;10742;51.816;8.662;2022-07-11T01:54:09;19.90;93.80
21169;DHT22;10742;51.816;8.662;2022-07-11T01:57:30;19.90;93.90
21169;DHT22;10742;51.816;8.662;2022-07-11T02:00:52;19.90;93.90
21169;DHT22;10742;51.816;8.662;2022-07-11T02:04:13;19.90;93.80
21169;DHT22;10742;51.816;8.662;2022-07-11T02:07:34;19.90;93.80
21169;DHT22;10742;51.816;8.662;2022-07-11T02:11:14;19.90;93.90
21169;DHT22;10742;51.816;8.662;2022-07-11T02:14:35;19.90;93.90
21169;DHT22;10742;51.816;8.662;2022-07-11T02:18:00;20.00;93.80
21169;DHT22;10742;51.816;8.662;2022-07-11T02:21:21;20.00;93.80
21169;DHT22;10742;51.816;8.662;2022-07-11T02:24:42;20.00;93.90
21169;DHT22;10742;51.816;8.662;2022-07-11T02:28:03;20.00;93.90
21169;DHT22;10742;51.816;8.662;2022-07-11T02:31:24;20.00;94.00
21169;DHT22;10742;51.816;8.662;2022-07-11T02:34:45;20.00;94.00
21169;DHT22;10742;51.816;8.662;2022-07-11T02:38:06;20.00;94.00
21169;DHT22;10742;51.816;8.662;2022-07-11T02:41:27;20.00;94.00
21169;DHT22;10742;51.816;8.662;2022-07-11T02:44:50;20.00;94.00
21169;DHT22;10742;51.816;8.662;2022-07-11T02:48:11;20.00;94.00
21169;DHT22;10742;51.816;8.662;2022-07-11T02:51:32;20.00;94.00
21169;DHT22;10742;51.816;8.662;2022-07-11T02:54:54;20.00;94.10
21169;DHT22;10742;51.816;8.662;2022-07-11T02:58:15;20.00;94.10
21169;DHT22;10742;51.816;8.662;2022-07-11T03:01:36;20.00;94.10
21169;DHT22;10742;51.816;8.662;2022-07-11T03:04:57;20.00;94.10
21169;DHT22;10742;51.816;8.662;2022-07-11T03:08:18;20.00;94.10
21169;DHT22;10742;51.816;8.662;2022-07-11T03:11:39;20.00;94.10
21169;DHT22;10742;51.816;8.662;2022-07-11T03:15:01;20.00;94.10
21169;DHT22;10742;51.816;8.662;2022-07-11T03:18:22;20.00;94.20
21169;DHT22;10742;51.816;8.662;2022-07-11T03:21:43;20.00;94.20
21169;DHT22;10742;51.816;8.662;2022-07-11T03:25:05;20.00;94.20
21169;DHT22;10742;51.816;8.662;2022-07-11T03:28:27;20.00;94.20
21169;DHT22;10742;51.816;8.662;2022-07-11T03:31:48;20.00;94.20
21169;DHT22;10742;51.816;8.662;2022-07-11T03:35:09;20.00;94.20
21169;DHT22;10742;51.816;8.662;2022-07-11T03:38:49;20.00;94.20
21169;DHT22;10742;51.816;8.662;2022-07-11T03:42:10;20.00;94.30
21169;DHT22;10742;51.816;8.662;2022-07-11T03:45:31;20.00;94.30
21169;DHT22;10742;51.816;8.662;2022-07-11T03:48:53;20.00;94.30
21169;DHT22;10742;51.816;8.662;2022-07-11T03:52:14;20.00;94.40
21169;DHT22;10742;51.816;8.662;2022-07-11T03:55:35;20.00;94.40
21169;DHT22;10742;51.816;8.662;2022-07-11T03:58:59;20.00;94.40
21169;DHT22;10742;51.816;8.662;2022-07-11T04:02:20;20.00;94.40
21169;DHT22;10742;51.816;8.662;2022-07-11T04:05:41;20.00;94.40
21169;DHT22;10742;51.816;8.662;2022-07-11T04:09:02;20.00;94.40
21169;DHT22;10742;51.816;8.662;2022-07-11T04:12:23;20.00;94.50
21169;DHT22;10742;51.816;8.662;2022-07-11T04:15:44;20.00;94.50
21169;DHT22;10742;51.816;8.662;2022-07-11T04:19:05;20.00;94.50
21169;DHT22;10742;51.816;8.662;2022-07-11T04:22:27;20.00;94.50
21169;DHT22;10742;51.816;8.662;2022-07-11T04:25:48;20.00;94.60
21169;DHT22;10742;51.816;8.662;2022-07-11T04:29:09;20.00;94.60
21169;DHT22;10742;51.816;8.662;2022-07-11T04:32:31;20.00;94.60
21169;DHT22;10742;51.816;8.662;2022-07-11T04:35:52;20.10;94.70
21169;DHT22;10742;51.816;8.662;2022-07-11T04:39:13;20.10;94.70
21169;DHT22;10742;51.816;8.662;2022-07-11T04:42:34;20.10;94.70
21169;DHT22;10742;51.816;8.662;2022-07-11T04:45:56;20.10;94.80
21169;DHT22;10742;51.816;8.662;2022-07-11T04:49:19;20.10;94.80
21169;DHT22;10742;51.816;8.662;2022-07-11T04:52:42;20.00;94.80
21169;DHT22;10742;51.816;8.662;2022-07-11T04:56:03;20.10;94.90
21169;DHT22;10742;51.816;8.662;2022-07-11T04:59:24;20.10;95.00
21169;DHT22;10742;51.816;8.662;2022-07-11T05:02:45;20.10;94.90
21169;DHT22;10742;51.816;8.662;2022-07-11T05:06:06;20.10;94.90
21169;DHT22;10742;51.816;8.662;2022-07-11T05:09:27;20.10;94.90
21169;DHT22;10742;51.816;8.662;2022-07-11T05:12:48;20.10;95.00
21169;DHT22;10742;51.816;8.662;2022-07-11T05:16:09;20.10;95.10
21169;DHT22;10742;51.816;8.662;2022-07-11T05:19:30;20.10;95.50
21169;DHT22;10742;51.816;8.662;2022-07-11T05:22:52;20.10;95.20
21169;DHT22;10742;51.816;8.662;2022-07-11T05:26:13;20.10;95.20
21169;DHT22;10742;51.816;8.662;2022-07-11T05:29:37;20.20;95.20
21169;DHT22;10742;51.816;8.662;2022-07-11T05:32:58;20.20;95.20
21169;DHT22;10742;51.816;8.662;2022-07-11T05:36:19;20.20;95.20
21169;DHT22;10742;51.816;8.662;2022-07-11T05:39:40;20.20;95.20
21169;DHT22;10742;51.816;8.662;2022-07-11T05:43:02;20.30;95.30
21169;DHT22;10742;51.816;8.662;2022-07-11T05:46:23;20.20;95.40
21169;DHT22;10742;51.816;8.662;2022-07-11T05:49:45;20.30;95.50
21169;DHT22;10742;51.816;8.662;2022-07-11T05:53:06;20.30;95.50
21169;DHT22;10742;51.816;8.662;2022-07-11T05:56:28;20.30;95.60
21169;DHT22;10742;51.816;8.662;2022-07-11T05:59:49;20.40;95.60
21169;DHT22;10742;51.816;8.662;2022-07-11T06:03:10;20.40;95.60
21169;DHT22;10742;51.816;8.662;2022-07-11T06:06:32;20.50;95.60
21169;DHT22;10742;51.816;8.662;2022-07-11T06:09:53;20.50;95.70
21169;DHT22;10742;51.816;8.662;2022-07-11T06:13:14;20.50;95.60
21169;DHT22;10742;51.816;8.662;2022-07-11T06:16:35;20.60;95.50
21169;DHT22;10742;51.816;8.662;2022-07-11T06:19:56;20.60;95.40
21169;DHT22;10742;51.816;8.662;2022-07-11T06:23:17;20.60;95.40
21169;DHT22;10742;51.816;8.662;2022-07-11T06:26:39;20.70;95.20
21169;DHT22;10742;51.816;8.662;2022-07-11T06:30:01;20.70;95.10
21169;DHT22;10742;51.816;8.662;2022-07-11T06:33:22;20.60;94.80
21169;DHT22;10742;51.816;8.662;2022-07-11T06:36:43;20.50;94.90
21169;DHT22;10742;51.816;8.662;2022-07-11T06:40:05;20.40;94.90
21169;DHT22;10742;51.816;8.662;2022-07-11T06:43:31;20.30;94.90
21169;DHT22;10742;51.816;8.662;2022-07-11T06:46:52;20.20;95.00
21169;DHT22;10742;51.816;8.662;2022-07-11T06:50:13;20.10;95.10
21169;DHT22;10742;51.816;8.662;2022-07-11T06:53:34;20.00;95.10
21169;DHT22;10742;51.816;8.662;2022-07-11T06:56:55;19.90;95.20
21169;DHT22;10742;51.816;8.662;2022-07-11T07:00:17;19.80;95.30
21169;DHT22;10742;51.816;8.662;2022-07-11T07:03:38;19.80;95.30
21169;DHT22;10742;51.816;8.662;2022-07-11T07:07:00;19.80;95.30
21169;DHT22;10742;51.816;8.662;2022-07-11T07:10:22;19.80;95.30
21169;DHT22;10742;51.816;8.662;2022-07-11T07:13:44;19.70;95.30
21169;DHT22;10742;51.816;8.662;2022-07-11T07:17:06;19.60;95.30
21169;DHT22;10742;51.816;8.662;2022-07-11T07:20:27;19.60;95.40
21169;DHT22;10742;51.816;8.662;2022-07-11T07:23:48;19.60;95.60
21169;DHT22;10742;51.816;8.662;2022-07-11T07:27:09;19.50;95.60
21169;DHT22;10742;51.816;8.662;2022-07-11T07:30:32;19.60;95.80
21169;DHT22;10742;51.816;8.662;2022-07-11T07:33:52;19.70;95.90
21169;DHT22;10742;51.816;8.662;2022-07-11T07:37:14;19.80;95.90
21169;DHT22;10742;51.816;8.662;2022-07-11T07:40:35;19.90;95.80
21169;DHT22;10742;51.816;8.662;2022-07-11T07:43:57;20.00;95.80
21169;DHT22;10742;51.816;8.662;2022-07-11T07:47:18;20.10;95.80
21169;DHT22;10742;51.816;8.662;2022-07-11T07:50:39;20.20;95.90
21169;DHT22;10742;51.816;8.662;2022-07-11T07:54:01;20.40;95.90
21169;DHT22;10742;51.816;8.662;2022-07-11T07:57:22;20.60;95.90
21169;DHT22;10742;51.816;8.662;2022-07-11T08:00:44;20.70;95.60
21169;DHT22;10742;51.816;8.662;2022-07-11T08:04:23;20.90;95.30
21169;DHT22;10742;51.816;8.662;2022-07-11T08:07:45;21.10;94.80
21169;DHT22;10742;51.816;8.662;2022-07-11T08:11:06;21.20;94.60
21169;DHT22;10742;51.816;8.662;2022-07-11T08:14:47;21.20;94.50
21169;DHT22;10742;51.816;8.662;2022-07-11T08:18:10;21.30;94.30
21169;DHT22;10742;51.816;8.662;2022-07-11T08:21:32;21.40;94.30
21169;DHT22;10742;51.816;8.662;2022-07-11T08:24:53;21.40;94.30
21169;DHT22;10742;51.816;8.662;2022-07-11T08:28:15;21.50;94.20
21169;DHT22;10742;51.816;8.662;2022-07-11T08:31:36;21.60;94.20
21169;DHT22;10742;51.816;8.662;2022-07-11T08:34:57;21.70;94.00
21169;DHT22;10742;51.816;8.662;2022-07-11T08:38:18;21.80;93.80
21169;DHT22;10742;51.816;8.662;2022-07-11T08:41:43;21.90;93.50
21169;DHT22;10742;51.816;8.662;2022-07-11T08:45:05;22.00;93.20
21169;DHT22;10742;51.816;8.662;2022-07-11T08:48:27;22.10;93.20
21169;DHT22;10742;51.816;8.662;2022-07-11T08:51:49;22.10;93.10
21169;DHT22;10742;51.816;8.662;2022-07-11T08:55:09;22.20;93.00
21169;DHT22;10742;51.816;8.662;2022-07-11T08:58:31;22.20;92.90
21169;DHT22;10742;51.816;8.662;2022-07-11T09:01:54;22.30;92.90
21169;DHT22;10742;51.816;8.662;2022-07-11T09:05:16;22.30;92.70
21169;DHT22;10742;51.816;8.662;2022-07-11T09:08:37;22.40;92.60
21169;DHT22;10742;51.816;8.662;2022-07-11T09:11:58;22.40;92.40
21169;DHT22;10742;51.816;8.662;2022-07-11T09:16:04;22.40;92.20
21169;DHT22;10742;51.816;8.662;2022-07-11T09:19:26;22.50;92.10
21169;DHT22;10742;51.816;8.662;2022-07-11T09:22:47;22.50;92.20
21169;DHT22;10742;51.816;8.662;2022-07-11T09:26:31;22.50;92.10
21169;DHT22;10742;51.816;8.662;2022-07-11T09:29:55;22.50;92.10
21169;DHT22;10742;51.816;8.662;2022-07-11T09:33:35;22.50;92.20
21169;DHT22;10742;51.816;8.662;2022-07-11T09:36:57;22.60;92.30
21169;DHT22;10742;51.816;8.662;2022-07-11T09:40:19;22.60;92.10
21169;DHT22;10742;51.816;8.662;2022-07-11T09:43:40;22.70;92.00
21169;DHT22;10742;51.816;8.662;2022-07-11T09:47:08;22.80;91.90
21169;DHT22;10742;51.816;8.662;2022-07-11T09:50:30;22.90;91.80
21169;DHT22;10742;51.816;8.662;2022-07-11T09:53:55;23.00;91.90
21169;DHT22;10742;51.816;8.662;2022-07-11T09:57:27;23.00;91.50
21169;DHT22;10742;51.816;8.662;2022-07-11T10:00:48;23.10;91.60
21169;DHT22;10742;51.816;8.662;2022-07-11T10:04:11;23.20;91.50
21169;DHT22;10742;51.816;8.662;2022-07-11T10:07:37;23.30;91.50
21169;DHT22;10742;51.816;8.662;2022-07-11T10:10:58;23.40;91.30
21169;DHT22;10742;51.816;8.662;2022-07-11T10:14:20;23.40;91.20
21169;DHT22;10742;51.816;8.662;2022-07-11T10:18:15;23.50;90.90
21169;DHT22;10742;51.816;8.662;2022-07-11T10:21:46;23.50;90.40
21169;DHT22;10742;51.816;8.662;2022-07-11T10:25:24;23.50;90.40
21169;DHT22;10742;51.816;8.662;2022-07-11T10:28:52;23.50;90.50
21169;DHT22;10742;51.816;8.662;2022-07-11T10:32:15;23.60;90.60
21169;DHT22;10742;51.816;8.662;2022-07-11T10:35:41;23.70;91.00
21169;DHT22;10742;51.816;8.662;2022-07-11T10:39:22;23.80;90.50
21169;DHT22;10742;51.816;8.662;2022-07-11T10:42:48;23.90;89.90
21169;DHT22;10742;51.816;8.662;2022-07-11T10:46:21;23.90;90.20
21169;DHT22;10742;51.816;8.662;2022-07-11T10:49:48;23.90;89.50
21169;DHT22;10742;51.816;8.662;2022-07-11T10:53:21;24.00;89.30
21169;DHT22;10742;51.816;8.662;2022-07-11T10:57:39;24.00;88.60
21169;DHT22;10742;51.816;8.662;2022-07-11T11:00:32;23.90;88.30
21169;DHT22;10742;51.816;8.662;2022-07-11T11:07:54;23.90;88.40
21169;DHT22;10742;51.816;8.662;2022-07-11T11:14:46;23.80;88.30
21169;DHT22;10742;51.816;8.662;2022-07-11T11:22:00;23.80;88.50
21169;DHT22;10742;51.816;8.662;2022-07-11T11:25:22;23.80;88.20
21169;DHT22;10742;51.816;8.662;2022-07-11T11:28:58;23.70;88.70
21169;DHT22;10742;51.816;8.662;2022-07-11T11:32:21;23.70;88.20
21169;DHT22;10742;51.816;8.662;2022-07-11T11:35:42;23.70;88.80
21169;DHT22;10742;51.816;8.662;2022-07-11T11:39:04;23.70;88.80
21169;DHT22;10742;51.816;8.662;2022-07-11T11:42:27;23.70;89.10
21169;DHT22;10742;51.816;8.662;2022-07-11T11:45:49;23.70;89.10
21169;DHT22;10742;51.816;8.662;2022-07-11T11:49:11;23.70;89.10
21169;DHT22;10742;51.816;8.662;2022-07-11T11:52:34;23.80;88.80
21169;DHT22;10742;51.816;8.662;2022-07-11T11:55:57;23.80;88.40
21169;DHT22;10742;51.816;8.662;2022-07-11T11:59:18;23.70;88.50
21169;DHT22;10742;51.816;8.662;2022-07-11T12:02:50;23.70;88.40
21169;DHT22;10742;51.816;8.662;2022-07-11T12:06:11;23.70;88.30
21169;DHT22;10742;51.816;8.662;2022-07-11T12:09:32;23.60;88.50
21169;DHT22;10742;51.816;8.662;2022-07-11T12:13:11;23.50;88.70
21169;DHT22;10742;51.816;8.662;2022-07-11T12:16:34;23.50;89.20
21169;DHT22;10742;51.816;8.662;2022-07-11T12:20:09;23.60;89.30
21169;DHT22;10742;51.816;8.662;2022-07-11T12:23:31;23.60;89.30
21169;DHT22;10742;51.816;8.662;2022-07-11T12:26:52;23.70;89.10
21169;DHT22;10742;51.816;8.662;2022-07-11T12:30:23;23.80;89.00
21169;DHT22;10742;51.816;8.662;2022-07-11T12:33:51;23.80;88.70
21169;DHT22;10742;51.816;8.662;2022-07-11T12:37:15;23.90;88.40
21169;DHT22;10742;51.816;8.662;2022-07-11T12:40:37;24.00;88.30
21169;DHT22;10742;51.816;8.662;2022-07-11T12:43:59;23.90;88.60
21169;DHT22;10742;51.816;8.662;2022-07-11T12:47:45;23.90;89.10
21169;DHT22;10742;51.816;8.662;2022-07-11T12:51:07;24.00;89.00
21169;DHT22;10742;51.816;8.662;2022-07-11T12:54:30;24.10;89.60
21169;DHT22;10742;51.816;8.662;2022-07-11T12:58:06;24.10;89.30
21169;DHT22;10742;51.816;8.662;2022-07-11T13:01:31;24.30;88.60
21169;DHT22;10742;51.816;8.662;2022-07-11T13:04:53;24.40;88.50
21169;DHT22;10742;51.816;8.662;2022-07-11T13:08:25;24.50;88.40
21169;DHT22;10742;51.816;8.662;2022-07-11T13:12:05;24.50;87.30
21169;DHT22;10742;51.816;8.662;2022-07-11T13:15:26;24.60;87.30
21169;DHT22;10742;51.816;8.662;2022-07-11T13:18:48;24.60;87.00
21169;DHT22;10742;51.816;8.662;2022-07-11T13:22:10;24.60;86.90
21169;DHT22;10742;51.816;8.662;2022-07-11T13:25:31;24.60;86.90
21169;DHT22;10742;51.816;8.662;2022-07-11T13:28:52;24.50;86.70
21169;DHT22;10742;51.816;8.662;2022-07-11T13:32:14;24.50;87.20
21169;DHT22;10742;51.816;8.662;2022-07-11T13:35:35;24.50;87.50
21169;DHT22;10742;51.816;8.662;2022-07-11T13:38:57;24.50;87.30
21169;DHT22;10742;51.816;8.662;2022-07-11T14:11:49;23.10;90.40
21169;DHT22;10742;51.816;8.662;2022-07-11T14:15:11;23.10;91.20
21169;DHT22;10742;51.816;8.662;2022-07-11T14:18:32;23.30;90.90
21169;DHT22;10742;51.816;8.662;2022-07-11T14:21:54;23.50;90.60
21169;DHT22;10742;51.816;8.662;2022-07-11T14:25:15;23.50;90.40
21169;DHT22;10742;51.816;8.662;2022-07-11T14:28:36;23.50;90.50
21169;DHT22;10742;51.816;8.662;2022-07-11T14:31:58;23.50;90.60
21169;DHT22;10742;51.816;8.662;2022-07-11T14:35:19;23.50;90.60
21169;DHT22;10742;51.816;8.662;2022-07-11T14:38:41;23.50;90.80
21169;DHT22;10742;51.816;8.662;2022-07-11T14:42:02;23.60;90.90
21169;DHT22;10742;51.816;8.662;2022-07-11T14:45:30;23.60;91.00
21169;DHT22;10742;51.816;8.662;2022-07-11T14:48:51;23.70;90.90
21169;DHT22;10742;51.816;8.662;2022-07-11T14:52:14;23.70;90.80
21169;DHT22;10742;51.816;8.662;2022-07-11T14:55:35;23.80;90.90
21169;DHT22;10742;51.816;8.662;2022-07-11T14:58:57;23.90;90.70
21169;DHT22;10742;51.816;8.662;2022-07-11T15:02:18;23.90;90.60
21169;DHT22;10742;51.816;8.662;2022-07-11T15:05:58;24.00;90.80
21169;DHT22;10742;51.816;8.662;2022-07-11T15:09:20;24.10;90.90
21169;DHT22;10742;51.816;8.662;2022-07-11T15:13:00;24.20;90.70
21169;DHT22;10742;51.816;8.662;2022-07-11T15:16:21;24.20;90.40
21169;DHT22;10742;51.816;8.662;2022-07-11T15:19:42;24.20;90.30
21169;DHT22;10742;51.816;8.662;2022-07-11T15:23:04;24.20;90.10
21169;DHT22;10742;51.816;8.662;2022-07-11T15:26:25;24.20;90.10
21169;DHT22;10742;51.816;8.662;2022-07-11T15:29:47;24.30;90.20
21169;DHT22;10742;51.816;8.662;2022-07-11T15:33:08;24.30;90.30
21169;DHT22;10742;51.816;8.662;2022-07-11T15:36:30;24.30;90.40
21169;DHT22;10742;51.816;8.662;2022-07-11T15:39:51;24.40;90.10
21169;DHT22;10742;51.816;8.662;2022-07-11T15:43:13;24.50;90.10
21169;DHT22;10742;51.816;8.662;2022-07-11T15:46:35;24.60;90.20
21169;DHT22;10742;51.816;8.662;2022-07-11T15:49:57;24.60;90.10
21169;DHT22;10742;51.816;8.662;2022-07-11T15:53:19;24.70;89.70
21169;DHT22;10742;51.816;8.662;2022-07-11T15:56:40;24.80;89.40
21169;DHT22;10742;51.816;8.662;2022-07-11T16:00:03;24.80;88.90
21169;DHT22;10742;51.816;8.662;2022-07-11T16:03:31;24.90;88.80
21169;DHT22;10742;51.816;8.662;2022-07-11T16:06:53;24.90;89.00
21169;DHT22;10742;51.816;8.662;2022-07-11T16:10:15;25.00;88.70
21169;DHT22;10742;51.816;8.662;2022-07-11T16:13:36;25.00;88.30
21169;DHT22;10742;51.816;8.662;2022-07-11T16:16:57;25.00;88.20
21169;DHT22;10742;51.816;8.662;2022-07-11T16:20:22;25.00;87.90
21169;DHT22;10742;51.816;8.662;2022-07-11T16:23:43;25.10;87.60
21169;DHT22;10742;51.816;8.662;2022-07-11T16:27:05;25.10;87.50
21169;DHT22;10742;51.816;8.662;2022-07-11T16:30:26;25.10;87.50
21169;DHT22;10742;51.816;8.662;2022-07-11T16:33:54;25.10;87.00
21169;DHT22;10742;51.816;8.662;2022-07-11T16:37:15;25.10;87.00
21169;DHT22;10742;51.816;8.662;2022-07-11T16:40:36;25.00;86.70
21169;DHT22;10742;51.816;8.662;2022-07-11T16:44:15;25.00;86.70
21169;DHT22;10742;51.816;8.662;2022-07-11T16:47:37;24.90;86.80
21169;DHT22;10742;51.816;8.662;2022-07-11T16:51:02;24.90;86.90
21169;DHT22;10742;51.816;8.662;2022-07-11T16:54:24;24.80;87.00
21169;DHT22;10742;51.816;8.662;2022-07-11T16:57:46;24.80;87.40
21169;DHT22;10742;51.816;8.662;2022-07-11T17:01:07;24.70;87.40
21169;DHT22;10742;51.816;8.662;2022-07-11T17:04:29;24.70;87.60
21169;DHT22;10742;51.816;8.662;2022-07-11T17:07:50;24.70;87.30
21169;DHT22;10742;51.816;8.662;2022-07-11T17:11:30;24.70;87.00
21169;DHT22;10742;51.816;8.662;2022-07-11T17:14:52;24.70;87.30
21169;DHT22;10742;51.816;8.662;2022-07-11T17:18:14;24.70;87.50
21169;DHT22;10742;51.816;8.662;2022-07-11T17:21:35;24.70;87.40
21169;DHT22;10742;51.816;8.662;2022-07-11T17:24:57;24.70;87.30
21169;DHT22;10742;51.816;8.662;2022-07-11T17:28:19;24.80;87.30
21169;DHT22;10742;51.816;8.662;2022-07-11T17:31:41;24.80;87.20
21169;DHT22;10742;51.816;8.662;2022-07-11T17:35:07;24.80;87.30
21169;DHT22;10742;51.816;8.662;2022-07-11T17:38:28;24.80;87.00
21169;DHT22;10742;51.816;8.662;2022-07-11T17:41:49;24.90;86.90
21169;DHT22;10742;51.816;8.662;2022-07-11T17:45:11;24.90;86.70
21169;DHT22;10742;51.816;8.662;2022-07-11T17:48:32;24.90;86.80
21169;DHT22;10742;51.816;8.662;2022-07-11T17:51:54;24.90;86.70
21169;DHT22;10742;51.816;8.662;2022-07-11T17:55:17;24.90;86.80
21169;DHT22;10742;51.816;8.662;2022-07-11T17:58:39;24.90;86.70
21169;DHT22;10742;51.816;8.662;2022-07-11T18:02:00;24.90;86.70
21169;DHT22;10742;51.816;8.662;2022-07-11T18:05:22;24.90;86.70
21169;DHT22;10742;51.816;8.662;2022-07-11T18:08:44;24.80;86.60
21169;DHT22;10742;51.816;8.662;2022-07-11T18:12:07;24.80;86.70
21169;DHT22;10742;51.816;8.662;2022-07-11T18:15:29;24.80;86.70
21169;DHT22;10742;51.816;8.662;2022-07-11T18:18:54;24.70;86.80
21169;DHT22;10742;51.816;8.662;2022-07-11T18:22:16;24.70;87.00
21169;DHT22;10742;51.816;8.662;2022-07-11T18:25:38;24.70;87.10
21169;DHT22;10742;51.816;8.662;2022-07-11T18:28:59;24.70;87.20
21169;DHT22;10742;51.816;8.662;2022-07-11T18:32:21;24.70;87.20
21169;DHT22;10742;51.816;8.662;2022-07-11T18:35:42;24.70;87.40
21169;DHT22;10742;51.816;8.662;2022-07-11T18:39:03;24.70;87.50
21169;DHT22;10742;51.816;8.662;2022-07-11T18:42:43;24.70;87.40
21169;DHT22;10742;51.816;8.662;2022-07-11T18:46:05;24.80;87.30
21169;DHT22;10742;51.816;8.662;2022-07-11T18:49:26;24.80;87.20
21169;DHT22;10742;51.816;8.662;2022-07-11T18:52:47;24.80;87.30
21169;DHT22;10742;51.816;8.662;2022-07-11T18:56:09;24.80;87.30
21169;DHT22;10742;51.816;8.662;2022-07-11T18:59:30;24.80;87.30
21169;DHT22;10742;51.816;8.662;2022-07-11T19:02:51;24.70;87.20
21169;DHT22;10742;51.816;8.662;2022-07-11T19:06:14;24.70;87.20
21169;DHT22;10742;51.816;8.662;2022-07-11T19:09:35;24.70;87.20
21169;DHT22;10742;51.816;8.662;2022-07-11T19:12:57;24.70;87.20
21169;DHT22;10742;51.816;8.662;2022-07-11T19:16:18;24.70;87.30
21169;DHT22;10742;51.816;8.662;2022-07-11T19:19:40;24.70;87.30
21169;DHT22;10742;51.816;8.662;2022-07-11T19:23:01;24.70;87.30
21169;DHT22;10742;51.816;8.662;2022-07-11T19:26:23;24.70;87.20
21169;DHT22;10742;51.816;8.662;2022-07-11T19:29:45;24.60;87.90
21169;DHT22;10742;51.816;8.662;2022-07-11T19:33:06;24.60;87.20
21169;DHT22;10742;51.816;8.662;2022-07-11T19:36:27;24.60;87.30
21169;DHT22;10742;51.816;8.662;2022-07-11T19:39:49;24.50;87.40
21169;DHT22;10742;51.816;8.662;2022-07-11T19:43:10;24.50;87.40
21169;DHT22;10742;51.816;8.662;2022-07-11T19:46:34;24.50;87.50
21169;DHT22;10742;51.816;8.662;2022-07-11T19:49:56;24.50;87.50
21169;DHT22;10742;51.816;8.662;2022-07-11T19:53:17;24.40;87.50
21169;DHT22;10742;51.816;8.662;2022-07-11T19:56:38;24.40;87.60
21169;DHT22;10742;51.816;8.662;2022-07-11T20:00:18;24.40;87.70
21169;DHT22;10742;51.816;8.662;2022-07-11T20:03:39;24.30;87.80
21169;DHT22;10742;51.816;8.662;2022-07-11T20:07:01;24.30;87.90
21169;DHT22;10742;51.816;8.662;2022-07-11T20:10:22;24.30;88.10
21169;DHT22;10742;51.816;8.662;2022-07-11T20:13:44;24.20;88.40
21169;DHT22;10742;51.816;8.662;2022-07-11T20:17:06;24.10;88.40
21169;DHT22;10742;51.816;8.662;2022-07-11T20:20:29;24.10;88.70
21169;DHT22;10742;51.816;8.662;2022-07-11T20:23:50;24.10;89.00
21169;DHT22;10742;51.816;8.662;2022-07-11T20:27:13;24.00;89.10
21169;DHT22;10742;51.816;8.662;2022-07-11T20:30:34;23.90;89.00
21169;DHT22;10742;51.816;8.662;2022-07-11T20:33:56;23.90;89.20
21169;DHT22;10742;51.816;8.662;2022-07-11T20:37:18;23.90;89.40
21169;DHT22;10742;51.816;8.662;2022-07-11T20:40:39;23.80;89.60
21169;DHT22;10742;51.816;8.662;2022-07-11T20:44:01;23.70;89.60
21169;DHT22;10742;51.816;8.662;2022-07-11T20:47:22;23.70;89.90
21169;DHT22;10742;51.816;8.662;2022-07-11T20:50:44;23.70;90.00
21169;DHT22;10742;51.816;8.662;2022-07-11T20:54:06;23.60;90.00
21169;DHT22;10742;51.816;8.662;2022-07-11T20:57:28;23.60;90.10
21169;DHT22;10742;51.816;8.662;2022-07-11T21:00:49;23.50;90.10
21169;DHT22;10742;51.816;8.662;2022-07-11T21:04:11;23.40;90.10
21169;DHT22;10742;51.816;8.662;2022-07-11T21:07:32;23.40;90.20
21169;DHT22;10742;51.816;8.662;2022-07-11T21:10:54;23.40;90.30
21169;DHT22;10742;51.816;8.662;2022-07-11T21:14:15;23.30;90.30
21169;DHT22;10742;51.816;8.662;2022-07-11T21:17:36;23.20;90.40
21169;DHT22;10742;51.816;8.662;2022-07-11T21:20:58;23.20;90.40
21169;DHT22;10742;51.816;8.662;2022-07-11T21:24:19;23.10;90.50
21169;DHT22;10742;51.816;8.662;2022-07-11T21:27:41;23.10;90.70
21169;DHT22;10742;51.816;8.662;2022-07-11T21:31:02;23.00;90.70
21169;DHT22;10742;51.816;8.662;2022-07-11T21:34:23;22.90;90.70
21169;DHT22;10742;51.816;8.662;2022-07-11T21:37:44;22.80;90.90
21169;DHT22;10742;51.816;8.662;2022-07-11T21:41:06;22.70;91.00
21169;DHT22;10742;51.816;8.662;2022-07-11T21:44:27;22.60;91.00
21169;DHT22;10742;51.816;8.662;2022-07-11T21:47:49;22.50;91.20
21169;DHT22;10742;51.816;8.662;2022-07-11T21:51:11;22.40;91.20
21169;DHT22;10742;51.816;8.662;2022-07-11T21:54:33;22.40;91.30
21169;DHT22;10742;51.816;8.662;2022-07-11T21:57:54;22.30;91.30
21169;DHT22;10742;51.816;8.662;2022-07-11T22:01:16;22.20;91.30
21169;DHT22;10742;51.816;8.662;2022-07-11T22:04:37;22.20;91.40